Terminal Aerodrome Forecast
Issued by NWS

Home | Current Version | Previous Version | Graphics & Text | Print | Product List | Glossary On
Versions: 1 2 3 4 5 6 7 8 9 10 11 12 13 14 15
000
FTUS43 KMPX 260520
TAFRWF
TAF
KRWF 260520Z 2606/2706 07008KT P6SM OVC015
     FM260800 08007KT 4SM BR OVC009
     FM261000 06006KT P6SM OVC004
     FM261800 02008KT P6SM OVC007
     FM262200 35006KT P6SM OVC012=

USA.gov is the U.S. government's official web portal to all federal, state and local government web resources and services.